sensor_id;sensor_type;location;lat;lon;timestamp;noise_LAeq;noise_LA_min;noise_LA_max;noise_LA01;noise_LA95
18377;Laerm;9315;52.624;13.544;2024-03-22T00:02:09;41.96;37.29;53.25;;
18377;Laerm;9315;52.624;13.544;2024-03-22T00:04:37;55.00;34.00;71.94;;
18377;Laerm;9315;52.624;13.544;2024-03-22T00:07:03;55.78;36.47;74.72;;
18377;Laerm;9315;52.624;13.544;2024-03-22T00:09:30;53.73;36.83;71.90;;
18377;Laerm;9315;52.624;13.544;2024-03-22T00:11:56;51.05;35.37;68.15;;
18377;Laerm;9315;52.624;13.544;2024-03-22T00:14:22;55.64;33.37;73.48;;
18377;Laerm;9315;52.624;13.544;2024-03-22T00:16:48;63.45;36.61;84.34;;
18377;Laerm;9315;52.624;13.544;2024-03-22T00:19:15;39.49;34.97;45.73;;
18377;Laerm;9315;52.624;13.544;2024-03-22T00:21:41;55.06;33.90;72.38;;
18377;Laerm;9315;52.624;13.544;2024-03-22T00:24:07;38.96;35.04;44.79;;
18377;Laerm;9315;52.624;13.544;2024-03-22T00:26:34;39.76;35.81;45.79;;
18377;Laerm;9315;52.624;13.544;2024-03-22T00:29:00;40.82;36.09;46.69;;
18377;Laerm;9315;52.624;13.544;2024-03-22T00:31:26;51.64;36.66;68.19;;
18377;Laerm;9315;52.624;13.544;2024-03-22T00:33:52;38.46;34.42;46.96;;
18377;Laerm;9315;52.624;13.544;2024-03-22T00:36:19;40.02;34.99;49.78;;
18377;Laerm;9315;52.624;13.544;2024-03-22T00:38:46;41.36;34.64;52.78;;
18377;Laerm;9315;52.624;13.544;2024-03-22T00:41:13;38.53;34.49;47.85;;
18377;Laerm;9315;52.624;13.544;2024-03-22T00:43:39;38.77;34.25;46.54;;
18377;Laerm;9315;52.624;13.544;2024-03-22T00:46:06;41.35;36.21;50.81;;
18377;Laerm;9315;52.624;13.544;2024-03-22T00:48:34;52.31;34.93;69.61;;
18377;Laerm;9315;52.624;13.544;2024-03-22T00:51:02;53.01;35.23;68.79;;
18377;Laerm;9315;52.624;13.544;2024-03-22T00:53:29;44.36;36.48;55.24;;
18377;Laerm;9315;52.624;13.544;2024-03-22T00:55:56;59.82;36.73;77.65;;
18377;Laerm;9315;52.624;13.544;2024-03-22T00:58:29;59.88;38.45;75.43;;
18377;Laerm;9315;52.624;13.544;2024-03-22T01:00:57;39.90;34.77;46.46;;
18377;Laerm;9315;52.624;13.544;2024-03-22T01:03:23;54.66;35.81;71.71;;
18377;Laerm;9315;52.624;13.544;2024-03-22T01:05:49;41.07;37.33;45.69;;
18377;Laerm;9315;52.624;13.544;2024-03-22T01:08:15;41.85;37.23;54.84;;
18377;Laerm;9315;52.624;13.544;2024-03-22T01:10:42;40.82;35.80;50.59;;
18377;Laerm;9315;52.624;13.544;2024-03-22T01:13:08;55.67;37.24;71.51;;
18377;Laerm;9315;52.624;13.544;2024-03-22T01:15:34;42.28;37.45;49.59;;
18377;Laerm;9315;52.624;13.544;2024-03-22T01:18:01;56.34;37.66;74.10;;
18377;Laerm;9315;52.624;13.544;2024-03-22T01:20:28;62.77;37.55;78.80;;
18377;Laerm;9315;52.624;13.544;2024-03-22T01:22:54;55.60;35.80;73.74;;
18377;Laerm;9315;52.624;13.544;2024-03-22T01:25:20;53.95;36.90;69.29;;
18377;Laerm;9315;52.624;13.544;2024-03-22T01:27:46;60.46;40.22;77.86;;
18377;Laerm;9315;52.624;13.544;2024-03-22T01:30:12;52.72;36.61;68.38;;
18377;Laerm;9315;52.624;13.544;2024-03-22T01:32:39;41.24;37.35;46.96;;
18377;Laerm;9315;52.624;13.544;2024-03-22T01:35:05;39.39;35.54;43.59;;
18377;Laerm;9315;52.624;13.544;2024-03-22T01:37:31;40.77;36.76;48.29;;
18377;Laerm;9315;52.624;13.544;2024-03-22T01:39:58;53.20;38.29;71.34;;
18377;Laerm;9315;52.624;13.544;2024-03-22T01:42:24;40.68;36.53;49.61;;
18377;Laerm;9315;52.624;13.544;2024-03-22T01:44:50;54.05;37.51;71.66;;
18377;Laerm;9315;52.624;13.544;2024-03-22T01:47:17;47.32;35.98;67.86;;
18377;Laerm;9315;52.624;13.544;2024-03-22T01:49:44;55.23;38.44;72.00;;
18377;Laerm;9315;52.624;13.544;2024-03-22T01:52:10;40.79;36.64;45.22;;
18377;Laerm;9315;52.624;13.544;2024-03-22T01:54:36;41.79;35.40;49.83;;
18377;Laerm;9315;52.624;13.544;2024-03-22T01:57:03;39.84;35.36;46.45;;
18377;Laerm;9315;52.624;13.544;2024-03-22T01:59:30;58.02;36.13;75.10;;
18377;Laerm;9315;52.624;13.544;2024-03-22T02:01:56;40.22;36.60;48.23;;
18377;Laerm;9315;52.624;13.544;2024-03-22T02:04:22;49.63;38.31;66.18;;
18377;Laerm;9315;52.624;13.544;2024-03-22T02:06:49;40.94;36.87;47.70;;
18377;Laerm;9315;52.624;13.544;2024-03-22T02:09:15;55.31;37.52;74.73;;
18377;Laerm;9315;52.624;13.544;2024-03-22T02:11:42;54.71;37.91;71.34;;
18377;Laerm;9315;52.624;13.544;2024-03-22T02:14:09;59.45;39.11;74.00;;
18377;Laerm;9315;52.624;13.544;2024-03-22T02:16:35;59.27;38.22;76.57;;
18377;Laerm;9315;52.624;13.544;2024-03-22T02:19:01;56.83;38.04;73.92;;
18377;Laerm;9315;52.624;13.544;2024-03-22T02:21:27;52.11;38.44;66.99;;
18377;Laerm;9315;52.624;13.544;2024-03-22T02:23:53;44.15;39.19;51.99;;
18377;Laerm;9315;52.624;13.544;2024-03-22T02:26:20;65.13;42.65;78.47;;
18377;Laerm;9315;52.624;13.544;2024-03-22T02:28:46;42.81;37.23;52.43;;
18377;Laerm;9315;52.624;13.544;2024-03-22T02:31:12;56.71;39.67;68.95;;
18377;Laerm;9315;52.624;13.544;2024-03-22T02:33:38;54.85;37.11;71.36;;
18377;Laerm;9315;52.624;13.544;2024-03-22T02:36:05;64.59;37.47;79.15;;
18377;Laerm;9315;52.624;13.544;2024-03-22T02:38:31;58.71;37.52;73.30;;
18377;Laerm;9315;52.624;13.544;2024-03-22T02:40:58;52.42;37.77;71.00;;
18377;Laerm;9315;52.624;13.544;2024-03-22T02:43:25;56.84;38.25;71.74;;
18377;Laerm;9315;52.624;13.544;2024-03-22T02:45:51;58.20;38.48;74.67;;
18377;Laerm;9315;52.624;13.544;2024-03-22T02:48:17;59.52;38.33;74.19;;
18377;Laerm;9315;52.624;13.544;2024-03-22T02:50:43;57.95;40.70;73.71;;
18377;Laerm;9315;52.624;13.544;2024-03-22T02:53:10;60.80;39.83;76.31;;
18377;Laerm;9315;52.624;13.544;2024-03-22T02:55:39;62.23;42.19;73.86;;
18377;Laerm;9315;52.624;13.544;2024-03-22T02:58:07;57.74;39.88;76.66;;
18377;Laerm;9315;52.624;13.544;2024-03-22T03:00:38;60.01;40.52;74.46;;
18377;Laerm;9315;52.624;13.544;2024-03-22T03:03:07;60.10;40.66;74.51;;
18377;Laerm;9315;52.624;13.544;2024-03-22T03:05:34;62.73;41.90;78.97;;
18377;Laerm;9315;52.624;13.544;2024-03-22T03:08:01;56.48;39.10;70.93;;
18377;Laerm;9315;52.624;13.544;2024-03-22T03:10:27;59.56;39.92;72.11;;
18377;Laerm;9315;52.624;13.544;2024-03-22T03:12:55;58.25;38.65;71.76;;
18377;Laerm;9315;52.624;13.544;2024-03-22T03:15:22;62.02;43.65;76.17;;
18377;Laerm;9315;52.624;13.544;2024-03-22T03:17:48;61.08;42.24;74.27;;
18377;Laerm;9315;52.624;13.544;2024-03-22T03:20:14;59.02;42.39;71.91;;
18377;Laerm;9315;52.624;13.544;2024-03-22T03:22:41;43.78;40.97;53.78;;
18377;Laerm;9315;52.624;13.544;2024-03-22T03:25:08;61.68;41.44;75.67;;
18377;Laerm;9315;52.624;13.544;2024-03-22T03:27:34;60.21;41.89;72.94;;
18377;Laerm;9315;52.624;13.544;2024-03-22T03:30:02;64.34;42.23;73.90;;
18377;Laerm;9315;52.624;13.544;2024-03-22T03:32:28;57.60;41.73;74.43;;
18377;Laerm;9315;52.624;13.544;2024-03-22T03:34:55;63.67;42.01;76.10;;
18377;Laerm;9315;52.624;13.544;2024-03-22T03:37:21;63.45;44.71;75.55;;
18377;Laerm;9315;52.624;13.544;2024-03-22T03:39:47;61.74;44.62;73.57;;
18377;Laerm;9315;52.624;13.544;2024-03-22T03:42:14;64.68;42.91;78.79;;
18377;Laerm;9315;52.624;13.544;2024-03-22T03:44:40;58.05;42.85;73.77;;
18377;Laerm;9315;52.624;13.544;2024-03-22T03:47:07;64.23;46.25;77.59;;
18377;Laerm;9315;52.624;13.544;2024-03-22T03:49:34;61.08;44.99;72.95;;
18377;Laerm;9315;52.624;13.544;2024-03-22T03:52:01;63.87;44.81;74.91;;
18377;Laerm;9315;52.624;13.544;2024-03-22T03:54:28;66.63;43.71;81.03;;
18377;Laerm;9315;52.624;13.544;2024-03-22T03:56:54;66.72;44.81;78.91;;
18377;Laerm;9315;52.624;13.544;2024-03-22T03:59:20;66.31;46.76;78.02;;
18377;Laerm;9315;52.624;13.544;2024-03-22T04:01:46;61.15;46.42;72.05;;
18377;Laerm;9315;52.624;13.544;2024-03-22T04:04:14;64.70;47.36;76.17;;
18377;Laerm;9315;52.624;13.544;2024-03-22T04:06:40;65.38;46.91;78.97;;
18377;Laerm;9315;52.624;13.544;2024-03-22T04:09:07;64.61;47.31;75.36;;
18377;Laerm;9315;52.624;13.544;2024-03-22T04:11:33;64.33;47.37;76.46;;
18377;Laerm;9315;52.624;13.544;2024-03-22T04:13:59;66.05;50.03;75.86;;
18377;Laerm;9315;52.624;13.544;2024-03-22T04:16:25;67.64;50.82;79.39;;
18377;Laerm;9315;52.624;13.544;2024-03-22T04:18:51;65.60;49.70;76.85;;
18377;Laerm;9315;52.624;13.544;2024-03-22T04:21:18;64.10;48.87;73.88;;
18377;Laerm;9315;52.624;13.544;2024-03-22T04:23:44;67.56;50.27;75.78;;
18377;Laerm;9315;52.624;13.544;2024-03-22T04:26:10;63.67;48.20;74.32;;
18377;Laerm;9315;52.624;13.544;2024-03-22T04:28:36;67.78;49.65;81.46;;
18377;Laerm;9315;52.624;13.544;2024-03-22T04:31:08;65.97;49.77;76.47;;
18377;Laerm;9315;52.624;13.544;2024-03-22T04:33:38;63.55;49.80;74.30;;
18377;Laerm;9315;52.624;13.544;2024-03-22T04:36:05;67.16;52.78;74.96;;
18377;Laerm;9315;52.624;13.544;2024-03-22T04:38:32;65.62;50.06;76.72;;
18377;Laerm;9315;52.624;13.544;2024-03-22T04:40:58;66.04;50.26;86.58;;
18377;Laerm;9315;52.624;13.544;2024-03-22T04:43:25;67.51;51.35;76.25;;
18377;Laerm;9315;52.624;13.544;2024-03-22T04:45:52;65.35;47.83;77.92;;
18377;Laerm;9315;52.624;13.544;2024-03-22T04:48:21;65.46;49.44;74.55;;
18377;Laerm;9315;52.624;13.544;2024-03-22T04:50:52;65.47;48.74;74.96;;
18377;Laerm;9315;52.624;13.544;2024-03-22T04:53:20;66.22;49.96;75.52;;
18377;Laerm;9315;52.624;13.544;2024-03-22T04:55:52;65.63;49.04;76.17;;
18377;Laerm;9315;52.624;13.544;2024-03-22T04:58:21;67.48;49.18;76.89;;
18377;Laerm;9315;52.624;13.544;2024-03-22T05:00:49;65.28;49.59;76.86;;
18377;Laerm;9315;52.624;13.544;2024-03-22T05:03:16;67.84;49.88;78.15;;
18377;Laerm;9315;52.624;13.544;2024-03-22T05:05:43;69.97;51.15;79.66;;
18377;Laerm;9315;52.624;13.544;2024-03-22T05:08:09;67.47;50.35;78.37;;
18377;Laerm;9315;52.624;13.544;2024-03-22T05:10:36;68.58;51.14;76.50;;
18377;Laerm;9315;52.624;13.544;2024-03-22T05:13:02;67.80;50.20;76.34;;
18377;Laerm;9315;52.624;13.544;2024-03-22T05:15:29;68.13;50.89;79.62;;
18377;Laerm;9315;52.624;13.544;2024-03-22T05:17:58;69.06;51.53;78.67;;
18377;Laerm;9315;52.624;13.544;2024-03-22T05:20:24;68.97;50.64;80.53;;
18377;Laerm;9315;52.624;13.544;2024-03-22T05:22:51;69.79;51.12;77.98;;
18377;Laerm;9315;52.624;13.544;2024-03-22T05:25:17;65.84;51.63;75.91;;
18377;Laerm;9315;52.624;13.544;2024-03-22T05:27:44;69.28;51.72;77.49;;
18377;Laerm;9315;52.624;13.544;2024-03-22T05:30:12;69.85;54.01;80.66;;
18377;Laerm;9315;52.624;13.544;2024-03-22T05:32:40;68.15;51.51;80.52;;
18377;Laerm;9315;52.624;13.544;2024-03-22T05:35:07;71.15;52.87;88.47;;
18377;Laerm;9315;52.624;13.544;2024-03-22T05:37:34;70.34;54.24;79.65;;
18377;Laerm;9315;52.624;13.544;2024-03-22T05:40:02;70.46;54.32;78.47;;
18377;Laerm;9315;52.624;13.544;2024-03-22T05:42:30;67.41;53.40;78.58;;
18377;Laerm;9315;52.624;13.544;2024-03-22T05:44:56;68.70;52.76;77.77;;
18377;Laerm;9315;52.624;13.544;2024-03-22T05:47:22;68.42;52.75;78.11;;
18377;Laerm;9315;52.624;13.544;2024-03-22T05:49:49;68.87;53.02;79.83;;
18377;Laerm;9315;52.624;13.544;2024-03-22T05:52:15;70.20;54.29;82.80;;
18377;Laerm;9315;52.624;13.544;2024-03-22T05:54:41;68.15;51.67;79.49;;
18377;Laerm;9315;52.624;13.544;2024-03-22T05:57:11;67.26;52.44;79.18;;
18377;Laerm;9315;52.624;13.544;2024-03-22T05:59:37;68.38;51.35;77.17;;
18377;Laerm;9315;52.624;13.544;2024-03-22T06:02:04;70.36;53.09;78.83;;
18377;Laerm;9315;52.624;13.544;2024-03-22T06:04:31;69.27;55.48;76.71;;
18377;Laerm;9315;52.624;13.544;2024-03-22T06:06:57;70.27;51.35;81.28;;
18377;Laerm;9315;52.624;13.544;2024-03-22T06:09:28;69.28;54.24;77.55;;
18377;Laerm;9315;52.624;13.544;2024-03-22T06:12:06;70.84;52.53;82.50;;
18377;Laerm;9315;52.624;13.544;2024-03-22T06:14:33;70.85;56.05;80.88;;
18377;Laerm;9315;52.624;13.544;2024-03-22T06:17:00;69.91;54.54;80.13;;
18377;Laerm;9315;52.624;13.544;2024-03-22T06:19:26;68.64;53.86;78.30;;
18377;Laerm;9315;52.624;13.544;2024-03-22T06:21:52;70.93;54.84;78.55;;
18377;Laerm;9315;52.624;13.544;2024-03-22T06:24:18;68.18;51.73;78.29;;
18377;Laerm;9315;52.624;13.544;2024-03-22T06:26:44;69.66;53.73;81.33;;
18377;Laerm;9315;52.624;13.544;2024-03-22T06:29:11;70.71;53.02;83.21;;
18377;Laerm;9315;52.624;13.544;2024-03-22T06:31:38;69.80;51.21;79.42;;
18377;Laerm;9315;52.624;13.544;2024-03-22T06:34:05;69.32;50.19;78.46;;
18377;Laerm;9315;52.624;13.544;2024-03-22T06:36:32;68.40;51.14;78.33;;
18377;Laerm;9315;52.624;13.544;2024-03-22T06:38:58;68.40;50.13;79.43;;
18377;Laerm;9315;52.624;13.544;2024-03-22T06:41:27;67.56;52.07;77.61;;
18377;Laerm;9315;52.624;13.544;2024-03-22T06:43:53;69.44;53.83;79.12;;
18377;Laerm;9315;52.624;13.544;2024-03-22T06:46:20;68.04;51.36;81.04;;
18377;Laerm;9315;52.624;13.544;2024-03-22T06:48:46;68.07;51.34;78.91;;
18377;Laerm;9315;52.624;13.544;2024-03-22T06:51:12;68.35;52.81;77.70;;
18377;Laerm;9315;52.624;13.544;2024-03-22T06:53:38;69.45;53.68;77.22;;
18377;Laerm;9315;52.624;13.544;2024-03-22T06:56:05;68.44;51.35;78.45;;
18377;Laerm;9315;52.624;13.544;2024-03-22T06:58:33;67.83;50.62;76.30;;
18377;Laerm;9315;52.624;13.544;2024-03-22T07:00:59;67.64;50.66;76.97;;
18377;Laerm;9315;52.624;13.544;2024-03-22T07:03:25;69.47;55.05;79.76;;
18377;Laerm;9315;52.624;13.544;2024-03-22T07:05:53;68.33;53.21;76.84;;
18377;Laerm;9315;52.624;13.544;2024-03-22T07:08:19;68.51;51.04;76.16;;
18377;Laerm;9315;52.624;13.544;2024-03-22T07:10:45;69.34;51.27;81.08;;
18377;Laerm;9315;52.624;13.544;2024-03-22T07:13:11;69.32;52.93;76.78;;
18377;Laerm;9315;52.624;13.544;2024-03-22T07:15:38;67.50;49.97;76.06;;
18377;Laerm;9315;52.624;13.544;2024-03-22T07:18:04;69.32;49.67;79.94;;
18377;Laerm;9315;52.624;13.544;2024-03-22T07:20:31;69.03;54.52;78.04;;
18377;Laerm;9315;52.624;13.544;2024-03-22T07:22:57;69.50;50.48;78.35;;
18377;Laerm;9315;52.624;13.544;2024-03-22T07:25:23;70.47;52.68;81.11;;
18377;Laerm;9315;52.624;13.544;2024-03-22T07:27:49;68.16;50.68;76.99;;
18377;Laerm;9315;52.624;13.544;2024-03-22T07:30:16;68.05;50.50;77.21;;
18377;Laerm;9315;52.624;13.544;2024-03-22T07:32:42;69.31;50.97;79.99;;
18377;Laerm;9315;52.624;13.544;2024-03-22T07:35:09;67.38;49.93;78.05;;
18377;Laerm;9315;52.624;13.544;2024-03-22T07:37:35;68.58;52.16;77.32;;
18377;Laerm;9315;52.624;13.544;2024-03-22T07:40:02;68.62;52.27;79.67;;
18377;Laerm;9315;52.624;13.544;2024-03-22T07:42:28;69.09;49.36;81.80;;
18377;Laerm;9315;52.624;13.544;2024-03-22T07:44:55;67.97;49.81;76.65;;
18377;Laerm;9315;52.624;13.544;2024-03-22T07:47:21;66.74;49.44;77.04;;
18377;Laerm;9315;52.624;13.544;2024-03-22T07:49:47;69.98;50.76;79.60;;
18377;Laerm;9315;52.624;13.544;2024-03-22T07:52:13;69.16;52.12;77.32;;
18377;Laerm;9315;52.624;13.544;2024-03-22T07:54:39;67.87;49.75;79.41;;
18377;Laerm;9315;52.624;13.544;2024-03-22T07:57:05;69.56;50.41;80.57;;
18377;Laerm;9315;52.624;13.544;2024-03-22T07:59:32;68.93;49.59;77.25;;
18377;Laerm;9315;52.624;13.544;2024-03-22T08:01:59;70.06;50.96;80.34;;
18377;Laerm;9315;52.624;13.544;2024-03-22T08:04:26;70.63;51.73;89.80;;
18377;Laerm;9315;52.624;13.544;2024-03-22T08:06:55;69.19;51.59;80.78;;
18377;Laerm;9315;52.624;13.544;2024-03-22T08:09:21;67.42;50.34;77.83;;
18377;Laerm;9315;52.624;13.544;2024-03-22T08:11:48;69.61;51.60;78.12;;
18377;Laerm;9315;52.624;13.544;2024-03-22T08:14:14;66.89;50.99;75.06;;
18377;Laerm;9315;52.624;13.544;2024-03-22T08:16:42;66.98;50.40;76.12;;
18377;Laerm;9315;52.624;13.544;2024-03-22T08:19:08;67.68;52.50;78.64;;
18377;Laerm;9315;52.624;13.544;2024-03-22T08:21:34;69.30;53.07;78.47;;
18377;Laerm;9315;52.624;13.544;2024-03-22T08:24:00;67.45;50.39;75.76;;
18377;Laerm;9315;52.624;13.544;2024-03-22T08:26:27;67.52;49.69;77.41;;
18377;Laerm;9315;52.624;13.544;2024-03-22T08:28:53;70.14;53.09;79.22;;
18377;Laerm;9315;52.624;13.544;2024-03-22T08:31:19;69.20;51.07;78.87;;
18377;Laerm;9315;52.624;13.544;2024-03-22T08:33:52;69.06;50.28;78.42;;
18377;Laerm;9315;52.624;13.544;2024-03-22T08:36:18;70.18;51.87;80.23;;
18377;Laerm;9315;52.624;13.544;2024-03-22T08:38:44;68.40;51.50;76.20;;
18377;Laerm;9315;52.624;13.544;2024-03-22T08:41:11;67.54;49.33;74.87;;
18377;Laerm;9315;52.624;13.544;2024-03-22T08:43:37;69.67;49.81;77.99;;
18377;Laerm;9315;52.624;13.544;2024-03-22T08:46:03;68.37;54.25;79.69;;
18377;Laerm;9315;52.624;13.544;2024-03-22T08:48:30;69.41;50.13;79.58;;
18377;Laerm;9315;52.624;13.544;2024-03-22T08:50:56;68.69;50.18;81.15;;
18377;Laerm;9315;52.624;13.544;2024-03-22T08:53:22;68.76;52.55;77.74;;
18377;Laerm;9315;52.624;13.544;2024-03-22T08:55:49;68.31;50.83;76.53;;
18377;Laerm;9315;52.624;13.544;2024-03-22T08:58:15;66.78;50.46;79.03;;
18377;Laerm;9315;52.624;13.544;2024-03-22T09:00:44;68.36;50.40;82.00;;
18377;Laerm;9315;52.624;13.544;2024-03-22T09:03:11;67.52;49.04;77.15;;
18377;Laerm;9315;52.624;13.544;2024-03-22T09:05:37;68.59;50.45;77.66;;
18377;Laerm;9315;52.624;13.544;2024-03-22T09:08:04;69.17;53.38;80.28;;
18377;Laerm;9315;52.624;13.544;2024-03-22T09:10:30;68.13;48.50;82.90;;
18377;Laerm;9315;52.624;13.544;2024-03-22T09:12:57;68.39;50.02;80.56;;
18377;Laerm;9315;52.624;13.544;2024-03-22T09:15:23;67.28;50.37;75.54;;
18377;Laerm;9315;52.624;13.544;2024-03-22T09:17:52;69.69;54.27;77.64;;
18377;Laerm;9315;52.624;13.544;2024-03-22T09:20:18;67.42;52.59;75.31;;
18377;Laerm;9315;52.624;13.544;2024-03-22T09:22:45;67.11;52.47;74.71;;
18377;Laerm;9315;52.624;13.544;2024-03-22T09:25:11;66.78;50.38;75.67;;
18377;Laerm;9315;52.624;13.544;2024-03-22T09:27:37;67.21;50.25;77.26;;
18377;Laerm;9315;52.624;13.544;2024-03-22T09:30:05;70.38;53.69;81.65;;
18377;Laerm;9315;52.624;13.544;2024-03-22T09:32:31;66.66;49.52;75.59;;
18377;Laerm;9315;52.624;13.544;2024-03-22T09:34:58;68.22;51.04;76.27;;
18377;Laerm;9315;52.624;13.544;2024-03-22T09:37:24;68.87;51.72;80.27;;
18377;Laerm;9315;52.624;13.544;2024-03-22T09:39:50;67.90;51.10;77.44;;
18377;Laerm;9315;52.624;13.544;2024-03-22T09:42:17;67.44;50.24;76.13;;
18377;Laerm;9315;52.624;13.544;2024-03-22T09:44:49;70.11;52.37;82.24;;
18377;Laerm;9315;52.624;13.544;2024-03-22T09:47:18;68.60;50.66;75.03;;
18377;Laerm;9315;52.624;13.544;2024-03-22T09:49:44;68.55;51.68;75.31;;
18377;Laerm;9315;52.624;13.544;2024-03-22T09:52:14;68.55;51.72;78.56;;
18377;Laerm;9315;52.624;13.544;2024-03-22T09:54:45;67.75;50.69;77.26;;
18377;Laerm;9315;52.624;13.544;2024-03-22T09:57:16;67.94;52.16;79.31;;
18377;Laerm;9315;52.624;13.544;2024-03-22T09:59:45;68.94;48.07;77.43;;
18377;Laerm;9315;52.624;13.544;2024-03-22T10:02:13;68.56;52.31;76.99;;
18377;Laerm;9315;52.624;13.544;2024-03-22T10:04:41;66.90;49.86;75.45;;
18377;Laerm;9315;52.624;13.544;2024-03-22T10:07:08;69.99;51.29;82.82;;
18377;Laerm;9315;52.624;13.544;2024-03-22T10:09:36;68.92;53.93;76.07;;
18377;Laerm;9315;52.624;13.544;2024-03-22T10:12:04;68.94;50.81;75.78;;
18377;Laerm;9315;52.624;13.544;2024-03-22T10:14:30;68.69;50.17;80.71;;
18377;Laerm;9315;52.624;13.544;2024-03-22T10:16:58;69.41;50.67;78.36;;
18377;Laerm;9315;52.624;13.544;2024-03-22T10:19:24;70.40;48.68;83.09;;
18377;Laerm;9315;52.624;13.544;2024-03-22T10:22:02;69.94;50.34;80.54;;
18377;Laerm;9315;52.624;13.544;2024-03-22T10:24:29;67.61;48.71;75.31;;
18377;Laerm;9315;52.624;13.544;2024-03-22T10:26:56;69.04;52.53;80.90;;
18377;Laerm;9315;52.624;13.544;2024-03-22T10:29:23;67.46;49.35;75.82;;
18377;Laerm;9315;52.624;13.544;2024-03-22T10:31:53;69.74;50.20;79.70;;
18377;Laerm;9315;52.624;13.544;2024-03-22T10:34:22;68.14;48.17;77.06;;
18377;Laerm;9315;52.624;13.544;2024-03-22T10:36:49;68.00;49.26;75.61;;
18377;Laerm;9315;52.624;13.544;2024-03-22T10:39:18;68.83;51.20;79.24;;
18377;Laerm;9315;52.624;13.544;2024-03-22T10:41:48;69.74;49.60;81.16;;
18377;Laerm;9315;52.624;13.544;2024-03-22T10:44:15;66.77;49.04;77.86;;
18377;Laerm;9315;52.624;13.544;2024-03-22T10:46:48;69.34;49.58;80.48;;
18377;Laerm;9315;52.624;13.544;2024-03-22T10:49:19;67.86;50.70;75.59;;
18377;Laerm;9315;52.624;13.544;2024-03-22T10:52:01;69.90;51.57;80.83;;
18377;Laerm;9315;52.624;13.544;2024-03-22T10:54:40;66.48;47.80;76.10;;
18377;Laerm;9315;52.624;13.544;2024-03-22T10:57:13;68.05;51.43;81.98;;
18377;Laerm;9315;52.624;13.544;2024-03-22T10:59:41;69.58;51.80;79.79;;
18377;Laerm;9315;52.624;13.544;2024-03-22T11:02:11;68.77;47.73;77.69;;
18377;Laerm;9315;52.624;13.544;2024-03-22T11:04:37;67.59;49.46;76.53;;
18377;Laerm;9315;52.624;13.544;2024-03-22T11:07:04;68.88;48.67;79.41;;
18377;Laerm;9315;52.624;13.544;2024-03-22T11:09:30;70.45;52.53;80.67;;
18377;Laerm;9315;52.624;13.544;2024-03-22T11:11:57;68.54;49.53;75.83;;
18377;Laerm;9315;52.624;13.544;2024-03-22T11:14:24;67.93;49.85;79.90;;
18377;Laerm;9315;52.624;13.544;2024-03-22T11:16:50;69.42;49.49;76.97;;
18377;Laerm;9315;52.624;13.544;2024-03-22T11:19:17;68.31;49.90;79.10;;
18377;Laerm;9315;52.624;13.544;2024-03-22T11:21:43;70.33;51.13;81.55;;
18377;Laerm;9315;52.624;13.544;2024-03-22T11:24:09;69.20;50.69;77.84;;
18377;Laerm;9315;52.624;13.544;2024-03-22T11:26:37;69.26;53.47;81.02;;
18377;Laerm;9315;52.624;13.544;2024-03-22T11:29:04;70.17;52.29;77.23;;
18377;Laerm;9315;52.624;13.544;2024-03-22T11:31:30;68.83;51.71;76.70;;
18377;Laerm;9315;52.624;13.544;2024-03-22T11:33:57;69.68;51.22;82.26;;
18377;Laerm;9315;52.624;13.544;2024-03-22T11:36:25;69.84;51.94;76.96;;
18377;Laerm;9315;52.624;13.544;2024-03-22T11:38:51;69.07;55.01;79.65;;
18377;Laerm;9315;52.624;13.544;2024-03-22T11:41:29;70.80;50.55;79.31;;
18377;Laerm;9315;52.624;13.544;2024-03-22T11:43:57;69.26;51.08;77.54;;
18377;Laerm;9315;52.624;13.544;2024-03-22T11:46:27;68.68;50.53;78.84;;
18377;Laerm;9315;52.624;13.544;2024-03-22T11:48:54;68.63;50.71;77.40;;
18377;Laerm;9315;52.624;13.544;2024-03-22T11:51:21;69.23;51.37;78.23;;
18377;Laerm;9315;52.624;13.544;2024-03-22T11:53:52;69.85;50.15;78.39;;
18377;Laerm;9315;52.624;13.544;2024-03-22T11:56:20;68.78;50.53;85.88;;
18377;Laerm;9315;52.624;13.544;2024-03-22T11:58:57;70.65;51.79;80.62;;
18377;Laerm;9315;52.624;13.544;2024-03-22T12:01:23;70.11;51.31;82.40;;
18377;Laerm;9315;52.624;13.544;2024-03-22T12:03:49;69.65;52.04;76.32;;
18377;Laerm;9315;52.624;13.544;2024-03-22T12:06:16;69.52;50.45;79.58;;
18377;Laerm;9315;52.624;13.544;2024-03-22T12:08:42;69.03;53.59;79.21;;
18377;Laerm;9315;52.624;13.544;2024-03-22T12:11:11;72.06;50.40;80.86;;
18377;Laerm;9315;52.624;13.544;2024-03-22T12:13:39;71.36;57.11;78.04;;
18377;Laerm;9315;52.624;13.544;2024-03-22T12:16:06;70.29;52.97;77.86;;
18377;Laerm;9315;52.624;13.544;2024-03-22T12:18:33;70.38;53.69;79.02;;
18377;Laerm;9315;52.624;13.544;2024-03-22T12:21:00;72.24;51.72;82.48;;
18377;Laerm;9315;52.624;13.544;2024-03-22T12:23:27;71.07;52.86;78.07;;
18377;Laerm;9315;52.624;13.544;2024-03-22T12:25:53;73.37;52.24;81.71;;
18377;Laerm;9315;52.624;13.544;2024-03-22T12:28:21;72.24;53.66;83.58;;
18377;Laerm;9315;52.624;13.544;2024-03-22T12:30:51;74.43;54.02;87.21;;
18377;Laerm;9315;52.624;13.544;2024-03-22T12:33:18;72.68;55.32;80.16;;
18377;Laerm;9315;52.624;13.544;2024-03-22T12:35:44;74.53;52.13;82.73;;
18377;Laerm;9315;52.624;13.544;2024-03-22T12:38:11;75.86;55.22;82.86;;
18377;Laerm;9315;52.624;13.544;2024-03-22T12:40:40;76.50;54.05;88.23;;
18377;Laerm;9315;52.624;13.544;2024-03-22T12:43:09;76.90;53.85;84.65;;
18377;Laerm;9315;52.624;13.544;2024-03-22T12:45:37;78.01;52.11;86.37;;
18377;Laerm;9315;52.624;13.544;2024-03-22T12:48:05;76.64;53.92;83.92;;
18377;Laerm;9315;52.624;13.544;2024-03-22T12:50:31;75.41;53.70;83.66;;
18377;Laerm;9315;52.624;13.544;2024-03-22T12:52:59;76.00;54.76;84.49;;
18377;Laerm;9315;52.624;13.544;2024-03-22T12:55:25;76.70;54.60;86.12;;
18377;Laerm;9315;52.624;13.544;2024-03-22T12:57:54;76.11;51.72;84.39;;
18377;Laerm;9315;52.624;13.544;2024-03-22T13:00:21;76.48;54.92;85.96;;
18377;Laerm;9315;52.624;13.544;2024-03-22T13:02:47;75.29;53.63;83.66;;
18377;Laerm;9315;52.624;13.544;2024-03-22T13:05:14;76.00;54.02;84.98;;
18377;Laerm;9315;52.624;13.544;2024-03-22T13:07:41;77.92;54.40;85.03;;
18377;Laerm;9315;52.624;13.544;2024-03-22T13:10:09;76.74;54.39;84.50;;
18377;Laerm;9315;52.624;13.544;2024-03-22T13:12:36;77.86;53.98;85.43;;
18377;Laerm;9315;52.624;13.544;2024-03-22T13:15:03;75.53;59.28;81.88;;
18377;Laerm;9315;52.624;13.544;2024-03-22T13:17:30;77.12;53.63;86.00;;
18377;Laerm;9315;52.624;13.544;2024-03-22T13:19:56;76.99;53.72;84.39;;
18377;Laerm;9315;52.624;13.544;2024-03-22T13:22:22;76.25;53.35;85.25;;
18377;Laerm;9315;52.624;13.544;2024-03-22T13:24:49;74.83;54.53;83.22;;
18377;Laerm;9315;52.624;13.544;2024-03-22T13:27:17;75.16;56.82;91.43;;
18377;Laerm;9315;52.624;13.544;2024-03-22T13:29:43;74.66;55.59;82.43;;
18377;Laerm;9315;52.624;13.544;2024-03-22T13:32:09;73.51;52.69;84.08;;
18377;Laerm;9315;52.624;13.544;2024-03-22T13:34:39;75.76;55.58;84.02;;
18377;Laerm;9315;52.624;13.544;2024-03-22T13:37:05;72.63;52.16;84.33;;
18377;Laerm;9315;52.624;13.544;2024-03-22T13:39:34;74.04;52.35;83.50;;
18377;Laerm;9315;52.624;13.544;2024-03-22T13:42:02;74.12;57.33;81.72;;
18377;Laerm;9315;52.624;13.544;2024-03-22T13:44:28;74.82;54.54;84.64;;